KGEY/GEY METAR and TAF weather

Enter ICAO airport designator
Station Type Date Time Source
KGEY METAR 2020/09/18 07:53 UTC NOAA

KGEY 180753Z AUTO 11005KT 6SM HZ CLR 11/03 A3017 RMK AO2 SLP192 T01110033


Station Type Date Time Source
KGEY Decoded METAR 2020/09/18 07:53 UTC NOAA

SOUTH BIG HORN COUNTY AIRPORT , WY, United States (KGEY) 44-31N 108-05W 1191M
Sep 18, 2020 - 03:53 AM EDT / 2020.09.18 0753 UTC
Wind: from the ESE (110 degrees) at 6 MPH (5 KT):0
Visibility: 6 mile(s):0
Sky conditions: clear
Weather: haze
Temperature: 52.0 F (11.1 C)
Dew Point: 37.9 F (3.3 C)
Relative Humidity: 58%
Pressure (altimeter): 30.17 in. Hg (1021 hPa)
ob: KGEY 180753Z AUTO 11005KT 6SM HZ CLR 11/03 A3017 RMK AO2 SLP192 T01110033
cycle: 8

Station Type Date Time Source
KGEY TAF UTC NOAA

Error!

Example: see airport list